Time;durP1;ratioP1;P1;durP2;ratioP2;P2;SDS_P1;SDS_P2;PMS_P1;PMS_P2;Temp;Humidity;BMP_temperature;BMP_pressure;BME280_temperature;BME280_humidity;BME280_pressure;Samples;Min_cycle;Max_cycle;Signal;HPM_P1;HPM_P2
2021/07/04 00:01:03;;;;;;;1.98;1.60;;;25.40;54.70;;;;;;5013604;28;20112;-62
2021/07/04 00:03:29;;;;;;;1.73;1.63;;;25.40;54.70;;;;;;5009977;28;20032;-61
2021/07/04 00:05:55;;;;;;;1.52;1.42;;;25.40;54.70;;;;;;5014953;28;20031;-62
2021/07/04 00:08:23;;;;;;;1.60;1.50;;;25.40;54.80;;;;;;5020512;28;20052;-62
2021/07/04 00:11:04;;;;;;;2.30;1.67;;;25.40;54.80;;;;;;5024725;28;20030;-61
2021/07/04 00:13:31;;;;;;;1.70;1.60;;;25.40;54.80;;;;;;5015642;28;20135;-60
2021/07/04 00:15:59;;;;;;;1.73;1.55;;;25.40;54.80;;;;;;5025657;28;20033;-61
2021/07/04 00:18:27;;;;;;;1.85;1.73;;;25.40;54.80;;;;;;5033586;28;20052;-62
2021/07/04 00:20:54;;;;;;;2.15;1.73;;;25.40;54.80;;;;;;5012438;28;20030;-62
2021/07/04 00:23:21;;;;;;;1.63;1.52;;;25.30;54.70;;;;;;5020366;28;20040;-62
2021/07/04 00:25:48;;;;;;;1.45;1.30;;;25.40;54.90;;;;;;5020041;28;20419;-62
2021/07/04 00:28:14;;;;;;;1.45;1.33;;;25.30;54.80;;;;;;4997612;28;20089;-61
2021/07/04 00:30:41;;;;;;;1.48;1.38;;;25.40;54.90;;;;;;5007607;28;20033;-63
2021/07/04 00:33:06;;;;;;;1.35;1.23;;;25.30;54.80;;;;;;5024536;28;20040;-63
2021/07/04 00:35:33;;;;;;;1.63;1.52;;;25.40;54.90;;;;;;5017975;28;20357;-61
2021/07/04 00:37:59;;;;;;;2.97;1.55;;;25.40;54.90;;;;;;5016045;28;20072;-62
2021/07/04 00:40:26;;;;;;;1.40;1.30;;;25.30;54.90;;;;;;5030965;28;20021;-62
2021/07/04 00:42:53;;;;;;;1.70;1.58;;;25.30;54.90;;;;;;5016034;28;20037;-62
2021/07/04 00:45:25;;;;;;;2.17;1.40;;;25.30;54.90;;;;;;5020739;28;20025;-62
2021/07/04 00:47:52;;;;;;;1.20;1.10;;;25.30;54.90;;;;;;5022783;28;20110;-62
2021/07/04 00:50:23;;;;;;;1.45;1.27;;;25.30;54.90;;;;;;5036946;28;20048;-61
2021/07/04 00:52:53;;;;;;;1.40;1.30;;;25.30;54.90;;;;;;5021873;28;20022;-61
2021/07/04 00:55:19;;;;;;;1.85;1.40;;;25.30;54.90;;;;;;5030711;28;20022;-61
2021/07/04 00:57:50;;;;;;;1.48;1.35;;;25.30;54.90;;;;;;5015415;28;20084;-62
2021/07/04 01:00:20;;;;;;;1.20;1.08;;;25.30;54.90;;;;;;5016918;28;20045;-62
2021/07/04 01:02:47;;;;;;;1.13;1.02;;;25.30;55.00;;;;;;5014796;28;20026;-63
2021/07/04 01:05:25;;;;;;;1.88;1.08;;;25.30;55.00;;;;;;5016534;28;20061;-62
2021/07/04 01:07:51;;;;;;;1.25;1.15;;;25.30;55.00;;;;;;5016068;28;20053;-61
2021/07/04 01:10:21;;;;;;;1.27;1.17;;;25.30;55.00;;;;;;5032547;28;20033;-62
2021/07/04 01:12:56;;;;;;;1.30;1.20;;;25.30;55.00;;;;;;5015123;28;20037;-61
2021/07/04 01:15:25;;;;;;;1.00;0.90;;;25.30;55.00;;;;;;5016517;28;20030;-62
2021/07/04 01:17:54;;;;;;;1.63;1.33;;;25.30;55.00;;;;;;5016417;28;20044;-62
2021/07/04 01:20:24;;;;;;;1.30;1.20;;;25.30;55.00;;;;;;5034266;28;20025;-63
2021/07/04 01:22:58;;;;;;;1.40;1.30;;;25.30;55.00;;;;;;5019743;28;20496;-62
2021/07/04 01:25:25;;;;;;;1.10;1.00;;;25.30;55.00;;;;;;5022568;28;20045;-62
2021/07/04 01:27:52;;;;;;;1.52;1.23;;;25.30;55.00;;;;;;5017381;28;20034;-62
2021/07/04 01:30:19;;;;;;;1.95;1.27;;;25.30;55.00;;;;;;5028175;28;20025;-62
2021/07/04 01:32:45;;;;;;;1.20;1.10;;;25.30;55.00;;;;;;5029956;28;20033;-61
2021/07/04 01:35:12;;;;;;;1.30;1.20;;;25.30;55.00;;;;;;5014905;28;20026;-61
2021/07/04 01:37:40;;;;;;;1.17;1.05;;;25.30;55.00;;;;;;5016543;28;20053;-62
2021/07/04 01:40:08;;;;;;;1.45;1.35;;;25.30;55.00;;;;;;5026089;28;20029;-62
2021/07/04 01:42:34;;;;;;;1.92;1.20;;;25.20;55.00;;;;;;5046136;28;20116;-62
2021/07/04 01:45:00;;;;;;;1.23;1.10;;;25.20;55.00;;;;;;5032482;28;20032;-62
2021/07/04 01:47:26;;;;;;;1.63;1.35;;;25.20;55.60;;;;;;5016768;28;20037;-63
2021/07/04 01:49:52;;;;;;;1.70;1.27;;;25.20;55.10;;;;;;4998294;28;20475;-63
2021/07/04 01:52:19;;;;;;;1.48;1.27;;;25.20;55.10;;;;;;5026311;28;20035;-61
2021/07/04 01:54:45;;;;;;;2.17;1.25;;;25.20;55.10;;;;;;5001698;28;20023;-61
2021/07/04 01:57:12;;;;;;;1.10;1.00;;;25.20;55.10;;;;;;5014346;28;20046;-63
2021/07/04 01:59:44;;;;;;;1.67;1.35;;;25.20;55.20;;;;;;5028678;28;20041;-60
2021/07/04 02:02:21;;;;;;;1.70;1.27;;;25.20;55.20;;;;;;5018569;28;20085;-61
2021/07/04 02:04:46;;;;;;;1.23;1.10;;;25.20;55.20;;;;;;5024351;28;20073;-60
2021/07/04 02:07:20;;;;;;;1.30;1.20;;;25.20;55.20;;;;;;5030138;28;20040;-60
2021/07/04 02:09:50;;;;;;;2.20;1.50;;;25.20;55.20;;;;;;5010242;28;20036;-60
2021/07/04 02:12:20;;;;;;;1.23;1.10;;;25.20;55.20;;;;;;5022887;28;20034;-62
2021/07/04 02:14:48;;;;;;;1.35;1.20;;;25.20;55.20;;;;;;5026231;28;20064;-62
2021/07/04 02:17:25;;;;;;;1.17;1.08;;;25.20;55.20;;;;;;5030656;28;20037;-60
2021/07/04 02:20:32;;;;;;;1.40;1.30;;;25.20;55.30;;;;;;4995411;28;20099;-62
2021/07/04 02:23:29;;;;;;;1.30;1.20;;;25.20;55.30;;;;;;5001916;28;20132;-61
2021/07/04 02:26:10;;;;;;;1.23;1.13;;;25.10;55.20;;;;;;5014093;28;20103;-61
2021/07/04 02:28:40;;;;;;;1.30;1.20;;;25.10;55.20;;;;;;5019708;28;20149;-62
2021/07/04 02:31:14;;;;;;;1.20;1.10;;;25.10;55.20;;;;;;5022524;28;20068;-62
2021/07/04 02:33:42;;;;;;;1.23;1.13;;;25.10;55.20;;;;;;5017462;28;20022;-62
2021/07/04 02:36:08;;;;;;;1.42;1.33;;;25.10;55.20;;;;;;5032885;28;20449;-62
2021/07/04 02:38:34;;;;;;;1.33;1.23;;;25.10;55.20;;;;;;5013777;28;20053;-62
2021/07/04 02:40:59;;;;;;;1.08;1.00;;;25.10;55.20;;;;;;5029400;28;20036;-61
2021/07/04 02:43:26;;;;;;;1.58;1.27;;;25.10;55.30;;;;;;5015684;28;20026;-63
2021/07/04 02:45:56;;;;;;;1.20;1.10;;;25.10;55.30;;;;;;5032261;28;20042;-62
2021/07/04 02:48:22;;;;;;;1.52;1.23;;;25.10;55.30;;;;;;5019707;28;20034;-61
2021/07/04 02:50:51;;;;;;;1.30;1.20;;;25.10;55.30;;;;;;5016919;28;20038;-61
2021/07/04 02:53:21;;;;;;;1.45;1.30;;;25.10;55.30;;;;;;5008460;28;20030;-62
2021/07/04 02:55:50;;;;;;;1.17;1.08;;;25.10;55.30;;;;;;5007696;28;20040;-62
2021/07/04 02:58:17;;;;;;;1.70;1.10;;;25.10;55.30;;;;;;5009988;28;20038;-61
2021/07/04 03:00:45;;;;;;;1.30;1.20;;;25.10;55.30;;;;;;5023898;28;20396;-61
2021/07/04 03:03:13;;;;;;;1.75;1.30;;;25.10;55.20;;;;;;5020742;28;20034;-62
2021/07/04 03:05:42;;;;;;;0.90;0.90;;;25.10;55.30;;;;;;5021333;28;20334;-62
2021/07/04 03:08:07;;;;;;;1.20;1.10;;;25.10;55.30;;;;;;5020611;28;20048;-62
2021/07/04 03:10:34;;;;;;;1.80;1.25;;;25.10;55.30;;;;;;5020689;28;20120;-63
2021/07/04 03:13:00;;;;;;;1.58;1.10;;;25.10;55.30;;;;;;5021786;28;20026;-62
2021/07/04 03:15:27;;;;;;;1.20;1.10;;;25.10;55.30;;;;;;5018809;28;20025;-61
2021/07/04 03:17:55;;;;;;;1.45;1.20;;;25.10;55.30;;;;;;5020837;28;20346;-60
2021/07/04 03:20:26;;;;;;;1.40;1.10;;;25.10;55.30;;;;;;5020367;28;20022;-61
2021/07/04 03:22:59;;;;;;;2.10;1.20;;;25.10;55.30;;;;;;5003904;28;20053;-62
2021/07/04 03:25:25;;;;;;;1.40;1.30;;;25.10;55.30;;;;;;5020786;28;20026;-62
2021/07/04 03:27:51;;;;;;;1.50;1.23;;;25.10;55.30;;;;;;5012107;28;20025;-64
2021/07/04 03:30:22;;;;;;;1.45;1.35;;;25.10;55.30;;;;;;5022517;28;20029;-60
2021/07/04 03:32:50;;;;;;;1.30;1.20;;;25.10;55.30;;;;;;5021652;28;20083;-62
2021/07/04 03:35:20;;;;;;;1.13;0.95;;;25.10;55.40;;;;;;5023249;28;20044;-61
2021/07/04 03:37:48;;;;;;;1.40;1.30;;;25.10;55.40;;;;;;5021600;28;20037;-62
2021/07/04 03:40:19;;;;;;;1.20;1.10;;;25.10;55.40;;;;;;5021346;28;20022;-62
2021/07/04 03:42:51;;;;;;;1.48;1.35;;;25.10;55.40;;;;;;5038502;28;20030;-61
2021/07/04 03:45:20;;;;;;;1.27;1.17;;;25.10;55.40;;;;;;5022125;28;20034;-62
2021/07/04 03:47:48;;;;;;;1.40;1.30;;;25.10;55.40;;;;;;5022333;28;20108;-61
2021/07/04 03:50:20;;;;;;;1.30;1.20;;;25.10;55.40;;;;;;5021597;28;20132;-60
2021/07/04 03:52:53;;;;;;;1.38;1.25;;;25.10;55.50;;;;;;5020247;28;20130;-62
2021/07/04 03:55:20;;;;;;;1.70;1.30;;;25.00;55.50;;;;;;5016943;28;20342;-61
2021/07/04 03:57:46;;;;;;;1.90;1.70;;;25.00;55.60;;;;;;5022806;28;20045;-61
2021/07/04 04:00:21;;;;;;;1.30;1.20;;;25.00;55.60;;;;;;5023291;28;20034;-61
2021/07/04 04:02:54;;;;;;;1.30;1.20;;;25.00;55.70;;;;;;5025191;28;20021;-62
2021/07/04 04:05:28;;;;;;;1.27;1.17;;;25.00;55.80;;;;;;5022320;28;20021;-62
2021/07/04 04:07:55;;;;;;;1.40;1.30;;;25.00;55.80;;;;;;5024303;28;20045;-60
2021/07/04 04:10:23;;;;;;;1.63;1.25;;;25.00;55.80;;;;;;5023711;28;20030;-62
2021/07/04 04:12:52;;;;;;;1.85;1.50;;;25.00;55.80;;;;;;5040643;28;20025;-61
2021/07/04 04:15:18;;;;;;;1.50;1.38;;;25.00;55.80;;;;;;5023971;28;20425;-62
2021/07/04 04:17:47;;;;;;;1.48;1.38;;;25.00;55.80;;;;;;5020081;28;20050;-63
2021/07/04 04:20:18;;;;;;;1.50;1.30;;;25.00;55.90;;;;;;5023703;28;20037;-62
2021/07/04 04:22:45;;;;;;;1.60;1.50;;;25.00;55.90;;;;;;5025917;28;20365;-61
2021/07/04 04:25:15;;;;;;;1.50;1.35;;;25.00;55.90;;;;;;5021985;28;20040;-60
2021/07/04 04:27:42;;;;;;;1.60;1.40;;;25.00;55.90;;;;;;5026753;28;20376;-61
2021/07/04 04:30:13;;;;;;;1.40;1.30;;;25.00;56.00;;;;;;5023821;28;20049;-61
2021/07/04 04:32:39;;;;;;;1.60;1.50;;;25.00;56.00;;;;;;5022113;28;20452;-62
2021/07/04 04:35:08;;;;;;;1.38;1.27;;;25.00;56.00;;;;;;5024906;28;20097;-60
2021/07/04 04:37:34;;;;;;;1.40;1.30;;;25.00;56.00;;;;;;5025892;28;20514;-62
2021/07/04 04:40:01;;;;;;;1.58;1.48;;;25.00;56.10;;;;;;5024404;28;20341;-62
2021/07/04 04:42:27;;;;;;;1.50;1.40;;;25.00;56.10;;;;;;5025404;28;20025;-62
2021/07/04 04:44:52;;;;;;;1.60;1.50;;;25.00;56.10;;;;;;5022181;28;20033;-64
2021/07/04 04:47:18;;;;;;;1.50;1.40;;;25.00;56.80;;;;;;5024677;28;20173;-64
2021/07/04 04:49:44;;;;;;;1.38;1.27;;;25.00;56.20;;;;;;5024948;28;20022;-63
2021/07/04 04:52:10;;;;;;;1.50;1.40;;;25.00;56.20;;;;;;5022467;28;20041;-63
2021/07/04 04:54:36;;;;;;;1.50;1.30;;;25.00;56.90;;;;;;5026233;28;20057;-63
2021/07/04 04:57:07;;;;;;;1.50;1.40;;;25.00;56.30;;;;;;5021946;28;20121;-62
2021/07/04 04:59:37;;;;;;;1.67;1.58;;;25.00;56.30;;;;;;5021177;28;20026;-62
2021/07/04 05:02:04;;;;;;;1.55;1.45;;;25.00;56.30;;;;;;5024647;28;20033;-62
2021/07/04 05:04:30;;;;;;;1.60;1.50;;;25.00;56.40;;;;;;5024501;28;20029;-63
2021/07/04 05:06:56;;;;;;;1.65;1.40;;;25.00;56.40;;;;;;5026034;28;20026;-64
2021/07/04 05:09:24;;;;;;;1.48;1.38;;;25.00;56.40;;;;;;5023990;28;20506;-62
2021/07/04 05:11:50;;;;;;;1.40;1.30;;;25.00;56.50;;;;;;5021328;28;20025;-62
2021/07/04 05:14:17;;;;;;;1.60;1.50;;;25.00;56.50;;;;;;5019811;28;20474;-62
2021/07/04 05:16:44;;;;;;;1.50;1.40;;;25.00;56.70;;;;;;5023732;28;20416;-62
2021/07/04 05:19:12;;;;;;;1.40;1.30;;;25.00;56.50;;;;;;5006042;28;20036;-62
2021/07/04 05:21:38;;;;;;;1.65;1.50;;;25.00;56.50;;;;;;5024614;28;20045;-63
2021/07/04 05:24:06;;;;;;;2.03;1.80;;;25.00;56.50;;;;;;5021513;28;20057;-61
2021/07/04 05:26:32;;;;;;;1.70;1.60;;;25.00;56.50;;;;;;5023523;28;20044;-60
2021/07/04 05:28:59;;;;;;;1.65;1.55;;;25.00;56.50;;;;;;5019386;28;20117;-62
2021/07/04 05:31:25;;;;;;;1.65;1.42;;;25.00;56.50;;;;;;5023180;28;20025;-62
2021/07/04 05:33:51;;;;;;;1.73;1.63;;;25.00;56.50;;;;;;5017324;28;20114;-61
2021/07/04 05:36:18;;;;;;;1.60;1.50;;;25.00;56.50;;;;;;5023372;28;20120;-61
2021/07/04 05:38:44;;;;;;;1.48;1.38;;;25.10;56.50;;;;;;5020393;28;20091;-62
2021/07/04 05:41:11;;;;;;;1.92;1.73;;;25.10;56.50;;;;;;5024235;28;20408;-61
2021/07/04 05:43:39;;;;;;;1.55;1.45;;;25.10;56.50;;;;;;5025823;28;20028;-61
2021/07/04 05:46:05;;;;;;;1.73;1.63;;;25.10;56.40;;;;;;5024822;28;20022;-63
2021/07/04 05:48:31;;;;;;;2.00;1.80;;;25.10;56.40;;;;;;5023137;28;20040;-63
2021/07/04 05:50:57;;;;;;;2.33;1.95;;;25.10;56.40;;;;;;5024737;28;20040;-61
2021/07/04 05:53:23;;;;;;;2.05;1.90;;;25.10;56.40;;;;;;5021300;28;20120;-61
2021/07/04 05:55:50;;;;;;;2.80;2.00;;;25.10;56.40;;;;;;5025269;28;20419;-61
2021/07/04 05:58:16;;;;;;;2.28;1.95;;;25.10;56.40;;;;;;5019322;28;20136;-61
2021/07/04 06:00:42;;;;;;;2.30;2.10;;;25.10;56.40;;;;;;5023599;28;20025;-61
2021/07/04 06:03:08;;;;;;;2.20;2.00;;;25.10;56.50;;;;;;5019832;28;20037;-61
2021/07/04 06:05:34;;;;;;;2.35;2.08;;;25.10;56.40;;;;;;5023527;28;20345;-60
2021/07/04 06:07:59;;;;;;;2.50;2.30;;;25.10;56.40;;;;;;5025466;28;20158;-62
2021/07/04 06:10:25;;;;;;;2.38;2.17;;;25.10;56.40;;;;;;5021811;28;20033;-61
2021/07/04 06:12:51;;;;;;;2.80;2.60;;;25.10;56.40;;;;;;5023296;28;20040;-62
2021/07/04 06:15:17;;;;;;;2.38;2.17;;;25.10;56.40;;;;;;5017454;28;20026;-62
2021/07/04 06:17:43;;;;;;;2.40;2.20;;;25.10;56.40;;;;;;5023225;28;20045;-63
2021/07/04 06:20:11;;;;;;;2.55;2.20;;;25.10;56.40;;;;;;5021038;28;20101;-63
2021/07/04 06:22:37;;;;;;;2.70;2.50;;;25.10;56.40;;;;;;5021701;28;20053;-62
2021/07/04 06:25:05;;;;;;;2.30;2.10;;;25.10;56.40;;;;;;5019781;28;20030;-64
2021/07/04 06:27:31;;;;;;;2.40;2.20;;;25.10;56.40;;;;;;5022698;28;20469;-63
2021/07/04 06:29:57;;;;;;;2.70;2.45;;;25.10;56.50;;;;;;5022881;28;20032;-60
2021/07/04 06:32:23;;;;;;;2.95;2.58;;;25.10;56.50;;;;;;5022275;28;20120;-61
2021/07/04 06:34:48;;;;;;;2.67;2.40;;;25.10;56.50;;;;;;5022158;28;20156;-62
2021/07/04 06:37:14;;;;;;;3.33;3.03;;;25.10;56.50;;;;;;5020424;28;20116;-61
2021/07/04 06:39:40;;;;;;;2.88;2.60;;;25.10;56.50;;;;;;5021385;28;20033;-61
2021/07/04 06:42:06;;;;;;;3.17;2.90;;;25.10;56.50;;;;;;5023268;28;20037;-62
2021/07/04 06:44:32;;;;;;;3.30;3.00;;;25.10;56.50;;;;;;5021069;28;20415;-62
2021/07/04 06:46:58;;;;;;;3.08;2.78;;;25.10;56.40;;;;;;5021235;28;20076;-58
2021/07/04 06:49:24;;;;;;;3.45;3.15;;;25.10;56.40;;;;;;5023187;28;20349;-61
2021/07/04 06:51:49;;;;;;;3.10;2.80;;;25.10;56.40;;;;;;5023224;28;20030;-63
2021/07/04 06:54:15;;;;;;;3.08;2.78;;;25.20;56.40;;;;;;5021021;28;20036;-62
2021/07/04 06:56:41;;;;;;;3.70;3.40;;;25.20;56.40;;;;;;5004363;28;20034;-62
2021/07/04 06:59:07;;;;;;;3.97;3.30;;;25.20;56.30;;;;;;5000875;28;20037;-63
2021/07/04 07:01:33;;;;;;;3.45;3.15;;;25.20;56.30;;;;;;5013879;28;20025;-62
2021/07/04 07:03:59;;;;;;;3.28;2.97;;;25.20;56.30;;;;;;5017587;28;20165;-62
2021/07/04 07:06:28;;;;;;;4.10;3.70;;;25.20;56.30;;;;;;5011183;28;20068;-63
2021/07/04 07:08:53;;;;;;;3.67;3.38;;;25.20;56.20;;;;;;5019397;28;20045;-61
2021/07/04 07:11:19;;;;;;;3.97;3.58;;;25.20;56.20;;;;;;5020708;28;20025;-62
2021/07/04 07:13:45;;;;;;;3.75;3.35;;;25.20;56.20;;;;;;5022006;28;20025;-62
2021/07/04 07:16:11;;;;;;;4.45;4.05;;;25.20;56.20;;;;;;5022541;28;20124;-61
2021/07/04 07:18:37;;;;;;;4.20;3.70;;;25.20;56.30;;;;;;5022825;28;20437;-60
2021/07/04 07:21:03;;;;;;;4.90;4.40;;;25.20;56.20;;;;;;5022085;28;20026;-61
2021/07/04 07:23:29;;;;;;;4.32;3.92;;;25.20;56.20;;;;;;5021960;28;20074;-61
2021/07/04 07:25:56;;;;;;;5.07;4.57;;;25.20;56.20;;;;;;5025019;28;20045;-62
2021/07/04 07:28:22;;;;;;;4.75;4.18;;;25.20;56.20;;;;;;5019742;28;20065;-62
2021/07/04 07:30:58;;;;;;;4.97;4.50;;;25.20;56.20;;;;;;5022486;28;20353;-61
2021/07/04 07:33:28;;;;;;;4.80;4.20;;;25.20;56.20;;;;;;5018328;28;20018;-63
2021/07/04 07:35:54;;;;;;;5.45;4.95;;;25.20;56.20;;;;;;5022698;28;20045;-61
2021/07/04 07:38:19;;;;;;;6.38;5.10;;;25.30;56.30;;;;;;5019821;28;20120;-61
2021/07/04 07:40:46;;;;;;;5.88;5.28;;;25.20;56.20;;;;;;5020082;28;20064;-61
2021/07/04 07:43:11;;;;;;;6.65;5.95;;;25.30;56.40;;;;;;5023246;28;20022;-60
2021/07/04 07:45:40;;;;;;;6.68;6.00;;;25.20;56.40;;;;;;5020492;28;20030;-60
2021/07/04 07:48:08;;;;;;;6.35;5.75;;;25.30;56.50;;;;;;5022499;28;20021;-62
2021/07/04 07:50:47;;;;;;;7.25;6.38;;;25.30;56.50;;;;;;5024040;28;20018;-61
2021/07/04 07:53:15;;;;;;;6.95;6.22;;;25.20;56.50;;;;;;5022417;28;20342;-61
2021/07/04 07:55:40;;;;;;;7.10;6.40;;;25.30;56.50;;;;;;5025346;28;20034;-61
2021/07/04 07:58:06;;;;;;;6.50;5.90;;;25.20;56.50;;;;;;5019349;28;20060;-61
2021/07/04 08:00:32;;;;;;;6.75;6.15;;;25.20;56.50;;;;;;5021267;28;20030;-62
2021/07/04 08:02:59;;;;;;;7.03;6.32;;;25.30;56.60;;;;;;5020494;28;20037;-61
2021/07/04 08:05:25;;;;;;;6.20;5.60;;;25.30;56.60;;;;;;5020009;28;20034;-62
2021/07/04 08:07:52;;;;;;;6.50;5.90;;;25.30;56.60;;;;;;5037243;28;20452;-61
2021/07/04 08:10:22;;;;;;;6.22;5.63;;;25.30;56.50;;;;;;5024917;28;20413;-61
2021/07/04 08:12:48;;;;;;;6.53;5.93;;;25.30;56.40;;;;;;5016153;28;20122;-62
2021/07/04 08:15:14;;;;;;;6.63;5.60;;;25.30;56.30;;;;;;5001510;28;20041;-58
2021/07/04 08:17:42;;;;;;;6.22;5.65;;;25.30;56.30;;;;;;5000141;28;20046;-58
2021/07/04 08:20:09;;;;;;;6.47;5.88;;;25.30;56.20;;;;;;4997843;28;20030;-59
2021/07/04 08:22:38;;;;;;;7.03;5.75;;;25.30;56.20;;;;;;5004142;28;20077;-61
2021/07/04 08:25:06;;;;;;;7.28;6.00;;;25.40;56.20;;;;;;5007852;28;20033;-61
2021/07/04 08:27:32;;;;;;;6.28;5.78;;;25.40;56.20;;;;;;5008675;28;20113;-60
2021/07/04 08:29:59;;;;;;;7.53;5.88;;;25.40;56.20;;;;;;5004657;28;20109;-63
2021/07/04 08:32:25;;;;;;;7.55;5.80;;;25.40;56.20;;;;;;5001091;28;20044;-62
2021/07/04 08:34:54;;;;;;;5.60;4.97;;;25.40;56.10;;;;;;5002641;28;20038;-62
2021/07/04 08:37:21;;;;;;;5.45;4.78;;;25.40;55.80;;;;;;5003552;28;20424;-63
2021/07/04 08:39:47;;;;;;;4.32;3.92;;;25.40;55.50;;;;;;5013839;28;20445;-65
2021/07/04 08:42:13;;;;;;;4.75;4.35;;;25.40;55.40;;;;;;5002285;28;20105;-61
2021/07/04 08:44:50;;;;;;;4.57;4.18;;;25.50;55.30;;;;;;5002413;28;20201;-61
2021/07/04 08:47:24;;;;;;;4.18;3.60;;;25.40;55.00;;;;;;5002528;28;20022;-61
2021/07/04 08:49:52;;;;;;;4.97;3.85;;;25.40;55.00;;;;;;5008535;28;20121;-64
2021/07/04 08:52:18;;;;;;;4.78;4.07;;;25.40;55.00;;;;;;5021264;28;20030;-62
2021/07/04 08:54:44;;;;;;;5.05;4.55;;;25.40;55.00;;;;;;5024359;28;20033;-63
2021/07/04 08:57:11;;;;;;;4.95;4.45;;;25.40;55.10;;;;;;5024599;28;20068;-63
2021/07/04 08:59:43;;;;;;;5.95;4.85;;;25.40;55.20;;;;;;5024465;28;20029;-58
2021/07/04 09:02:11;;;;;;;5.80;5.20;;;25.50;56.10;;;;;;5015807;28;20041;-56
2021/07/04 09:04:38;;;;;;;8.05;5.82;;;25.40;55.60;;;;;;5034112;28;20397;-59
2021/07/04 09:07:04;;;;;;;6.60;5.20;;;25.50;55.80;;;;;;5015840;28;20027;-68
2021/07/04 09:09:33;;;;;;;6.22;5.50;;;25.50;55.90;;;;;;5014992;28;20056;-61
2021/07/04 09:12:12;;;;;;;6.10;5.50;;;25.50;55.80;;;;;;5015066;28;20037;-61
2021/07/04 09:14:46;;;;;;;5.50;4.97;;;25.50;55.70;;;;;;5011184;28;20052;-59
2021/07/04 09:17:13;;;;;;;;;;;25.50;55.70;;;;;;5021341;28;20045;-61
2021/07/04 09:20:00;;;;;;;5.25;4.75;;;25.50;55.70;;;;;;5015988;28;19909;-60
2021/07/04 09:22:28;;;;;;;5.80;5.20;;;25.60;55.80;;;;;;5013213;28;20872;-66
2021/07/04 09:25:04;;;;;;;5.63;5.13;;;25.60;55.60;;;;;;5019871;28;20064;-65
2021/07/04 09:27:30;;;;;;;6.05;5.38;;;25.60;55.60;;;;;;5019368;28;20501;-58
2021/07/04 09:29:56;;;;;;;5.93;5.35;;;25.70;55.60;;;;;;5019338;28;20109;-60
2021/07/04 09:32:25;;;;;;;6.45;5.85;;;25.70;55.60;;;;;;5021848;28;20064;-54
2021/07/04 09:35:11;;;;;;;6.88;5.13;;;25.80;55.50;;;;;;5019678;28;20464;-61
2021/07/04 09:37:40;;;;;;;6.10;5.60;;;25.80;55.40;;;;;;5013685;28;20099;-58
2021/07/04 09:40:25;;;;;;;9.80;4.85;;;25.80;55.30;;;;;;5010569;28;20026;-60
2021/07/04 09:43:19;;;;;;;5.18;4.68;;;25.90;55.20;;;;;;5018651;28;20042;-66
2021/07/04 09:45:59;;;;;;;7.20;5.53;;;25.90;55.10;;;;;;5015820;28;20044;-66
2021/07/04 09:48:31;;;;;;;7.90;5.43;;;25.90;55.00;;;;;;5018629;28;20280;-61
2021/07/04 09:51:12;;;;;;;6.95;5.90;;;26.00;55.10;;;;;;5019820;28;20030;-62
2021/07/04 09:53:41;;;;;;;7.40;5.85;;;26.00;55.30;;;;;;5021855;28;20084;-63
2021/07/04 09:56:12;;;;;;;7.80;5.55;;;26.00;55.20;;;;;;5015731;28;20112;-63
2021/07/04 09:58:39;;;;;;;7.47;6.45;;;26.10;55.00;;;;;;5021177;28;20040;-63
2021/07/04 10:01:06;;;;;;;7.63;6.30;;;26.10;55.00;;;;;;5016006;28;20333;-60
2021/07/04 10:03:32;;;;;;;6.63;5.88;;;26.10;55.10;;;;;;5013066;28;20333;-60
2021/07/04 10:05:58;;;;;;;7.55;5.88;;;26.20;55.20;;;;;;5015931;28;20030;-63
2021/07/04 10:08:28;;;;;;;6.88;6.00;;;26.20;55.10;;;;;;5021616;28;20091;-64
2021/07/04 10:10:58;;;;;;;7.68;6.20;;;26.30;55.10;;;;;;5012997;28;20033;-62
2021/07/04 10:13:25;;;;;;;6.55;5.85;;;26.30;55.20;;;;;;5017576;28;20461;-63
2021/07/04 10:15:51;;;;;;;7.28;6.20;;;26.40;55.90;;;;;;5019061;28;20034;-64
2021/07/04 10:18:18;;;;;;;6.07;5.38;;;26.40;55.30;;;;;;5013455;28;20040;-63
2021/07/04 10:20:46;;;;;;;5.97;5.35;;;26.40;55.70;;;;;;5014545;28;20038;-64
2021/07/04 10:23:24;;;;;;;6.15;5.55;;;26.50;55.00;;;;;;5036678;28;20060;-64
2021/07/04 10:25:51;;;;;;;5.63;5.07;;;26.50;54.70;;;;;;5022984;28;20096;-63
2021/07/04 10:28:30;;;;;;;5.93;5.32;;;26.50;54.40;;;;;;5021316;28;20033;-63
2021/07/04 10:31:00;;;;;;;5.35;4.85;;;26.50;54.20;;;;;;5025366;28;20051;-62
2021/07/04 10:33:34;;;;;;;5.28;4.78;;;26.60;54.10;;;;;;5023603;28;20064;-64
2021/07/04 10:36:01;;;;;;;5.15;4.70;;;26.60;54.00;;;;;;5019395;28;20065;-61
2021/07/04 10:38:37;;;;;;;4.88;4.38;;;26.60;53.80;;;;;;5020800;28;20041;-63
2021/07/04 10:41:17;;;;;;;5.80;5.25;;;26.60;53.60;;;;;;5021127;28;20049;-62
2021/07/04 10:44:03;;;;;;;6.05;4.97;;;26.70;53.60;;;;;;5023856;28;20522;-64
2021/07/04 10:46:44;;;;;;;5.00;4.50;;;26.60;53.30;;;;;;5014545;28;20038;-62
2021/07/04 10:49:23;;;;;;;5.75;4.53;;;26.70;53.40;;;;;;5014260;28;20072;-67
2021/07/04 10:52:04;;;;;;;8.68;6.32;;;26.70;53.40;;;;;;5014833;28;20095;-62
2021/07/04 10:54:45;;;;;;;10.50;7.80;;;26.70;53.90;;;;;;5009069;28;20354;-63
2021/07/04 10:57:25;;;;;;;10.35;6.63;;;26.70;54.20;;;;;;5013605;28;20061;-66
2021/07/04 11:00:10;;;;;;;8.48;6.60;;;26.80;54.50;;;;;;5004936;28;20049;-65
2021/07/04 11:02:49;;;;;;;7.60;6.32;;;26.80;54.40;;;;;;5013365;28;20034;-65
2021/07/04 11:05:39;;;;;;;7.07;6.10;;;26.80;54.30;;;;;;5021153;28;20358;-64
2021/07/04 11:08:28;;;;;;;7.43;6.30;;;26.90;54.10;;;;;;5018508;28;20029;-67
2021/07/04 11:11:01;;;;;;;6.90;5.60;;;26.90;53.80;;;;;;5006192;28;20649;-65
2021/07/04 11:13:48;;;;;;;5.85;5.07;;;26.90;53.70;;;;;;5003502;28;20032;-68
2021/07/04 11:16:20;;;;;;;6.63;5.55;;;26.90;53.60;;;;;;5003371;28;20056;-66
2021/07/04 11:18:54;;;;;;;6.10;5.38;;;26.90;53.40;;;;;;5009169;28;20054;-66
2021/07/04 11:21:24;;;;;;;5.93;5.18;;;26.90;53.20;;;;;;5016300;28;20361;-62
2021/07/04 11:24:18;;;;;;;5.43;4.93;;;26.90;53.10;;;;;;5018482;28;20068;-63
2021/07/04 11:27:22;;;;;;;6.20;5.57;;;27.00;52.90;;;;;;5005818;28;20037;-63
2021/07/04 11:30:21;;;;;;;6.65;5.78;;;27.00;53.10;;;;;;5005691;28;20041;-65
2021/07/04 11:32:47;;;;;;;9.82;6.50;;;27.00;53.40;;;;;;5019139;28;20096;-64
2021/07/04 11:35:13;;;;;;;10.40;7.05;;;27.00;53.80;;;;;;5012196;28;20026;-64
2021/07/04 11:37:41;;;;;;;9.65;7.13;;;27.00;54.20;;;;;;5011346;28;20742;-62
2021/07/04 11:40:08;;;;;;;9.02;6.97;;;27.00;54.50;;;;;;5011197;28;20025;-63
2021/07/04 11:42:34;;;;;;;10.88;7.30;;;27.00;54.70;;;;;;5012663;28;20038;-60
2021/07/04 11:44:59;;;;;;;9.82;6.75;;;27.10;54.70;;;;;;5010364;28;20026;-61
2021/07/04 11:47:25;;;;;;;11.65;6.57;;;27.10;54.50;;;;;;5014020;28;20030;-61
2021/07/04 11:49:51;;;;;;;6.07;5.35;;;27.10;54.80;;;;;;5011146;28;20100;-63
2021/07/04 11:52:21;;;;;;;7.25;5.88;;;27.10;53.90;;;;;;5011366;28;20438;-63
2021/07/04 11:54:47;;;;;;;7.72;5.50;;;27.20;53.60;;;;;;5008352;28;20062;-66
2021/07/04 11:57:30;;;;;;;5.82;4.90;;;27.10;53.30;;;;;;5014093;28;20057;-63
2021/07/04 11:59:59;;;;;;;5.25;4.38;;;27.20;53.20;;;;;;5004970;28;20026;-62
2021/07/04 12:02:26;;;;;;;5.53;4.60;;;27.10;52.80;;;;;;5008192;28;20041;-61
2021/07/04 12:04:53;;;;;;;4.03;3.65;;;27.20;52.60;;;;;;5015476;28;20125;-62
2021/07/04 12:07:24;;;;;;;5.78;4.60;;;27.20;52.30;;;;;;5011186;28;20029;-62
2021/07/04 12:09:57;;;;;;;4.55;3.97;;;27.10;51.90;;;;;;5010163;28;20589;-65
2021/07/04 12:12:24;;;;;;;4.93;3.92;;;27.20;51.80;;;;;;5006765;28;20030;-63
2021/07/04 12:14:57;;;;;;;4.07;3.67;;;27.20;51.60;;;;;;5006051;28;20117;-62
2021/07/04 12:17:28;;;;;;;4.38;3.92;;;27.10;51.30;;;;;;5000116;28;20042;-64
2021/07/04 12:20:20;;;;;;;3.50;3.20;;;27.20;51.10;;;;;;5005499;28;20057;-64
2021/07/04 12:22:53;;;;;;;3.42;3.13;;;27.10;50.70;;;;;;5005881;28;20053;-62
2021/07/04 12:25:38;;;;;;;3.53;3.00;;;27.20;50.70;;;;;;5008406;28;20035;-63
2021/07/04 12:28:07;;;;;;;3.65;2.97;;;27.20;50.40;;;;;;5012457;28;20034;-64
2021/07/04 12:30:38;;;;;;;4.15;3.25;;;27.20;50.40;;;;;;5018694;28;20049;-63
2021/07/04 12:33:13;;;;;;;3.25;2.95;;;27.10;50.10;;;;;;5016668;28;20030;-62
2021/07/04 12:35:42;;;;;;;3.40;3.10;;;27.20;50.00;;;;;;5015083;28;20022;-61
2021/07/04 12:38:18;;;;;;;4.10;3.30;;;27.20;50.00;;;;;;5016552;28;20117;-60
2021/07/04 12:40:49;;;;;;;3.55;2.97;;;27.20;49.90;;;;;;5020776;28;20030;-59
2021/07/04 12:43:18;;;;;;;3.60;2.90;;;27.20;49.90;;;;;;5018607;28;20116;-61
2021/07/04 12:45:51;;;;;;;3.70;3.15;;;27.20;49.90;;;;;;5019507;28;20033;-62
2021/07/04 12:48:21;;;;;;;3.47;2.92;;;27.20;49.90;;;;;;5016072;28;20033;-61
2021/07/04 12:50:49;;;;;;;5.82;3.13;;;27.20;49.90;;;;;;5017478;28;20044;-63
2021/07/04 12:53:16;;;;;;;2.80;2.53;;;27.20;49.80;;;;;;5019522;28;20373;-60
2021/07/04 12:55:48;;;;;;;2.80;2.60;;;27.20;49.60;;;;;;5012209;28;20022;-62
2021/07/04 12:58:23;;;;;;;3.53;3.10;;;27.20;49.50;;;;;;5019548;28;20136;-61
2021/07/04 13:00:51;;;;;;;3.00;2.58;;;27.20;49.50;;;;;;5014662;28;20087;-63